sensor_id;sensor_type;location;lat;lon;timestamp;P1;durP1;ratioP1;P2;durP2;ratioP2
38859;SDS011;24609;48.316;16.174;2023-02-01T00:01:31;1.38;;;1.23;;
38859;SDS011;24609;48.316;16.174;2023-02-01T00:03:57;0.95;;;0.85;;
38859;SDS011;24609;48.316;16.174;2023-02-01T00:06:23;3.75;;;1.23;;
38859;SDS011;24609;48.316;16.174;2023-02-01T00:08:51;1.58;;;0.98;;
38859;SDS011;24609;48.316;16.174;2023-02-01T00:11:18;2.20;;;1.10;;
38859;SDS011;24609;48.316;16.174;2023-02-01T00:13:44;2.30;;;1.20;;
38859;SDS011;24609;48.316;16.174;2023-02-01T00:16:16;1.95;;;1.17;;
38859;SDS011;24609;48.316;16.174;2023-02-01T00:18:44;2.03;;;1.30;;
38859;SDS011;24609;48.316;16.174;2023-02-01T00:21:11;1.23;;;0.75;;
38859;SDS011;24609;48.316;16.174;2023-02-01T00:23:38;1.23;;;0.80;;
38859;SDS011;24609;48.316;16.174;2023-02-01T00:26:04;1.30;;;1.00;;
38859;SDS011;24609;48.316;16.174;2023-02-01T00:28:31;2.05;;;0.80;;
38859;SDS011;24609;48.316;16.174;2023-02-01T00:31:01;0.75;;;0.70;;
38859;SDS011;24609;48.316;16.174;2023-02-01T00:33:28;0.90;;;0.82;;
38859;SDS011;24609;48.316;16.174;2023-02-01T00:35:58;1.98;;;0.90;;
38859;SDS011;24609;48.316;16.174;2023-02-01T00:38:25;1.13;;;0.73;;
38859;SDS011;24609;48.316;16.174;2023-02-01T00:40:51;1.85;;;1.05;;
38859;SDS011;24609;48.316;16.174;2023-02-01T00:43:17;2.03;;;1.10;;
38859;SDS011;24609;48.316;16.174;2023-02-01T00:45:43;3.05;;;1.15;;
38859;SDS011;24609;48.316;16.174;2023-02-01T00:48:10;1.67;;;1.08;;
38859;SDS011;24609;48.316;16.174;2023-02-01T00:50:40;0.47;;;0.47;;
38859;SDS011;24609;48.316;16.174;2023-02-01T00:53:10;1.25;;;0.93;;
38859;SDS011;24609;48.316;16.174;2023-02-01T00:55:36;2.83;;;1.27;;
38859;SDS011;24609;48.316;16.174;2023-02-01T00:58:02;1.55;;;1.25;;
38859;SDS011;24609;48.316;16.174;2023-02-01T01:00:31;1.77;;;0.80;;
38859;SDS011;24609;48.316;16.174;2023-02-01T01:02:57;1.52;;;1.27;;
38859;SDS011;24609;48.316;16.174;2023-02-01T01:05:22;2.08;;;1.40;;
38859;SDS011;24609;48.316;16.174;2023-02-01T01:07:48;3.65;;;1.85;;
38859;SDS011;24609;48.316;16.174;2023-02-01T01:10:14;1.58;;;1.40;;
38859;SDS011;24609;48.316;16.174;2023-02-01T01:12:40;1.92;;;1.33;;
38859;SDS011;24609;48.316;16.174;2023-02-01T01:15:06;1.33;;;1.10;;
38859;SDS011;24609;48.316;16.174;2023-02-01T01:17:32;1.90;;;1.48;;
38859;SDS011;24609;48.316;16.174;2023-02-01T01:19:58;1.38;;;1.10;;
38859;SDS011;24609;48.316;16.174;2023-02-01T01:22:24;1.77;;;1.40;;
38859;SDS011;24609;48.316;16.174;2023-02-01T01:24:49;1.23;;;1.10;;
38859;SDS011;24609;48.316;16.174;2023-02-01T01:27:15;1.30;;;1.10;;
38859;SDS011;24609;48.316;16.174;2023-02-01T01:29:47;1.33;;;1.00;;
38859;SDS011;24609;48.316;16.174;2023-02-01T01:32:13;0.93;;;0.75;;
38859;SDS011;24609;48.316;16.174;2023-02-01T01:34:39;1.40;;;1.02;;
38859;SDS011;24609;48.316;16.174;2023-02-01T01:37:04;0.75;;;0.68;;
38859;SDS011;24609;48.316;16.174;2023-02-01T01:39:30;2.85;;;1.75;;
38859;SDS011;24609;48.316;16.174;2023-02-01T01:41:56;2.15;;;1.40;;
38859;SDS011;24609;48.316;16.174;2023-02-01T01:47:26;1.98;;;1.20;;
38859;SDS011;24609;48.316;16.174;2023-02-01T01:49:55;1.33;;;1.13;;
38859;SDS011;24609;48.316;16.174;2023-02-01T01:52:20;1.33;;;1.02;;
38859;SDS011;24609;48.316;16.174;2023-02-01T01:54:47;1.35;;;1.15;;
38859;SDS011;24609;48.316;16.174;2023-02-01T02:00:08;1.92;;;1.10;;
38859;SDS011;24609;48.316;16.174;2023-02-01T02:02:37;4.45;;;2.00;;
38859;SDS011;24609;48.316;16.174;2023-02-01T02:05:05;1.75;;;1.20;;
38859;SDS011;24609;48.316;16.174;2023-02-01T02:07:34;2.03;;;1.10;;
38859;SDS011;24609;48.316;16.174;2023-02-01T02:10:03;2.83;;;1.67;;
38859;SDS011;24609;48.316;16.174;2023-02-01T02:12:31;2.45;;;1.65;;
38859;SDS011;24609;48.316;16.174;2023-02-01T02:14:57;4.10;;;1.45;;
38859;SDS011;24609;48.316;16.174;2023-02-01T02:25:48;3.75;;;1.88;;
38859;SDS011;24609;48.316;16.174;2023-02-01T02:34:21;1.77;;;1.05;;
38859;SDS011;24609;48.316;16.174;2023-02-01T02:37:42;5.55;;;1.75;;
38859;SDS011;24609;48.316;16.174;2023-02-01T02:42:23;2.88;;;1.90;;
38859;SDS011;24609;48.316;16.174;2023-02-01T02:45:15;1.80;;;1.60;;
38859;SDS011;24609;48.316;16.174;2023-02-01T02:48:24;2.20;;;1.25;;
38859;SDS011;24609;48.316;16.174;2023-02-01T02:54:02;1.45;;;1.33;;
38859;SDS011;24609;48.316;16.174;2023-02-01T02:57:10;2.22;;;1.13;;
38859;SDS011;24609;48.316;16.174;2023-02-01T03:00:11;2.92;;;1.58;;
38859;SDS011;24609;48.316;16.174;2023-02-01T03:02:58;1.30;;;1.20;;
38859;SDS011;24609;48.316;16.174;2023-02-01T03:05:44;3.08;;;1.10;;
38859;SDS011;24609;48.316;16.174;2023-02-01T03:08:16;2.47;;;1.33;;
38859;SDS011;24609;48.316;16.174;2023-02-01T03:16:15;2.10;;;1.63;;
38859;SDS011;24609;48.316;16.174;2023-02-01T03:19:05;2.83;;;1.13;;
38859;SDS011;24609;48.316;16.174;2023-02-01T03:21:38;2.40;;;1.52;;
38859;SDS011;24609;48.316;16.174;2023-02-01T03:27:05;2.65;;;1.45;;
38859;SDS011;24609;48.316;16.174;2023-02-01T03:29:40;8.40;;;1.52;;
38859;SDS011;24609;48.316;16.174;2023-02-01T03:32:30;1.30;;;1.10;;
38859;SDS011;24609;48.316;16.174;2023-02-01T03:35:17;2.15;;;1.13;;
38859;SDS011;24609;48.316;16.174;2023-02-01T03:37:48;1.85;;;1.25;;
38859;SDS011;24609;48.316;16.174;2023-02-01T03:40:15;2.53;;;1.65;;
38859;SDS011;24609;48.316;16.174;2023-02-01T03:42:45;2.35;;;1.42;;
38859;SDS011;24609;48.316;16.174;2023-02-01T03:45:26;3.53;;;1.52;;
38859;SDS011;24609;48.316;16.174;2023-02-01T03:47:59;1.27;;;0.93;;
38859;SDS011;24609;48.316;16.174;2023-02-01T03:50:27;5.72;;;1.73;;
38859;SDS011;24609;48.316;16.174;2023-02-01T03:55:27;2.00;;;1.33;;
38859;SDS011;24609;48.316;16.174;2023-02-01T03:57:57;4.15;;;1.63;;
38859;SDS011;24609;48.316;16.174;2023-02-01T04:02:51;3.00;;;1.55;;
38859;SDS011;24609;48.316;16.174;2023-02-01T04:05:17;1.83;;;1.25;;
38859;SDS011;24609;48.316;16.174;2023-02-01T04:07:43;4.43;;;1.98;;
38859;SDS011;24609;48.316;16.174;2023-02-01T04:10:09;4.47;;;2.13;;
38859;SDS011;24609;48.316;16.174;2023-02-01T04:12:35;2.28;;;1.67;;
38859;SDS011;24609;48.316;16.174;2023-02-01T04:15:02;2.08;;;1.58;;
38859;SDS011;24609;48.316;16.174;2023-02-01T04:17:28;2.92;;;2.22;;
38859;SDS011;24609;48.316;16.174;2023-02-01T04:19:54;2.95;;;1.92;;
38859;SDS011;24609;48.316;16.174;2023-02-01T04:22:19;3.08;;;1.75;;
38859;SDS011;24609;48.316;16.174;2023-02-01T04:24:45;2.92;;;1.45;;
38859;SDS011;24609;48.316;16.174;2023-02-01T04:27:11;3.30;;;1.90;;
38859;SDS011;24609;48.316;16.174;2023-02-01T04:29:37;2.92;;;1.65;;
38859;SDS011;24609;48.316;16.174;2023-02-01T04:32:03;3.97;;;1.88;;
38859;SDS011;24609;48.316;16.174;2023-02-01T04:34:30;3.03;;;1.85;;
38859;SDS011;24609;48.316;16.174;2023-02-01T04:36:56;5.57;;;2.13;;
38859;SDS011;24609;48.316;16.174;2023-02-01T04:39:22;3.08;;;2.15;;
38859;SDS011;24609;48.316;16.174;2023-02-01T04:41:47;2.40;;;1.85;;
38859;SDS011;24609;48.316;16.174;2023-02-01T04:44:14;2.47;;;1.70;;
38859;SDS011;24609;48.316;16.174;2023-02-01T04:46:41;2.88;;;1.70;;
38859;SDS011;24609;48.316;16.174;2023-02-01T04:49:08;2.42;;;1.80;;
38859;SDS011;24609;48.316;16.174;2023-02-01T04:51:35;2.13;;;1.65;;
38859;SDS011;24609;48.316;16.174;2023-02-01T04:54:00;2.53;;;1.67;;
38859;SDS011;24609;48.316;16.174;2023-02-01T04:56:26;5.57;;;1.80;;
38859;SDS011;24609;48.316;16.174;2023-02-01T04:58:52;3.80;;;1.70;;
38859;SDS011;24609;48.316;16.174;2023-02-01T05:01:18;4.10;;;1.80;;
38859;SDS011;24609;48.316;16.174;2023-02-01T05:03:43;4.82;;;2.20;;
38859;SDS011;24609;48.316;16.174;2023-02-01T05:06:09;2.00;;;1.65;;
38859;SDS011;24609;48.316;16.174;2023-02-01T05:08:35;3.35;;;1.75;;
38859;SDS011;24609;48.316;16.174;2023-02-01T05:11:01;2.20;;;1.48;;
38859;SDS011;24609;48.316;16.174;2023-02-01T05:13:29;4.32;;;2.00;;
38859;SDS011;24609;48.316;16.174;2023-02-01T05:16:14;3.25;;;1.88;;
38859;SDS011;24609;48.316;16.174;2023-02-01T05:18:40;3.90;;;1.92;;
38859;SDS011;24609;48.316;16.174;2023-02-01T05:21:06;3.60;;;2.00;;
38859;SDS011;24609;48.316;16.174;2023-02-01T05:23:31;3.80;;;2.10;;
38859;SDS011;24609;48.316;16.174;2023-02-01T05:26:00;4.97;;;2.20;;
38859;SDS011;24609;48.316;16.174;2023-02-01T05:28:27;3.85;;;1.58;;
38859;SDS011;24609;48.316;16.174;2023-02-01T05:30:53;3.83;;;2.40;;
38859;SDS011;24609;48.316;16.174;2023-02-01T05:33:19;5.07;;;2.13;;
38859;SDS011;24609;48.316;16.174;2023-02-01T05:35:45;4.13;;;1.92;;
38859;SDS011;24609;48.316;16.174;2023-02-01T05:38:11;8.45;;;1.92;;
38859;SDS011;24609;48.316;16.174;2023-02-01T05:40:36;2.63;;;2.10;;
38859;SDS011;24609;48.316;16.174;2023-02-01T05:43:02;2.72;;;1.58;;
38859;SDS011;24609;48.316;16.174;2023-02-01T05:45:28;3.80;;;2.00;;
38859;SDS011;24609;48.316;16.174;2023-02-01T05:47:53;6.35;;;2.25;;
38859;SDS011;24609;48.316;16.174;2023-02-01T05:50:19;3.13;;;2.13;;
38859;SDS011;24609;48.316;16.174;2023-02-01T05:52:44;4.18;;;2.20;;
38859;SDS011;24609;48.316;16.174;2023-02-01T05:55:10;4.90;;;1.67;;
38859;SDS011;24609;48.316;16.174;2023-02-01T05:57:36;4.40;;;2.00;;
38859;SDS011;24609;48.316;16.174;2023-02-01T06:00:02;3.50;;;1.65;;
38859;SDS011;24609;48.316;16.174;2023-02-01T06:02:28;2.95;;;1.40;;
38859;SDS011;24609;48.316;16.174;2023-02-01T06:04:54;2.13;;;1.63;;
38859;SDS011;24609;48.316;16.174;2023-02-01T06:07:19;2.35;;;1.60;;
38859;SDS011;24609;48.316;16.174;2023-02-01T06:09:45;4.55;;;2.08;;
38859;SDS011;24609;48.316;16.174;2023-02-01T06:12:11;2.83;;;2.17;;
38859;SDS011;24609;48.316;16.174;2023-02-01T06:14:37;2.92;;;2.08;;
38859;SDS011;24609;48.316;16.174;2023-02-01T06:17:02;3.40;;;2.28;;
38859;SDS011;24609;48.316;16.174;2023-02-01T06:19:30;3.15;;;2.15;;
38859;SDS011;24609;48.316;16.174;2023-02-01T06:21:56;6.45;;;2.40;;
38859;SDS011;24609;48.316;16.174;2023-02-01T06:24:21;2.92;;;1.90;;
38859;SDS011;24609;48.316;16.174;2023-02-01T06:26:47;4.22;;;2.33;;
38859;SDS011;24609;48.316;16.174;2023-02-01T06:29:13;3.60;;;2.28;;
38859;SDS011;24609;48.316;16.174;2023-02-01T06:31:38;2.85;;;1.70;;
38859;SDS011;24609;48.316;16.174;2023-02-01T06:34:11;5.50;;;2.13;;
38859;SDS011;24609;48.316;16.174;2023-02-01T06:36:37;4.10;;;1.98;;
38859;SDS011;24609;48.316;16.174;2023-02-01T06:39:03;3.53;;;1.63;;
38859;SDS011;24609;48.316;16.174;2023-02-01T06:41:29;2.00;;;1.45;;
38859;SDS011;24609;48.316;16.174;2023-02-01T06:43:54;2.70;;;1.80;;
38859;SDS011;24609;48.316;16.174;2023-02-01T06:46:20;2.92;;;1.50;;
38859;SDS011;24609;48.316;16.174;2023-02-01T06:48:46;2.33;;;1.52;;
38859;SDS011;24609;48.316;16.174;2023-02-01T06:51:19;2.75;;;1.73;;
38859;SDS011;24609;48.316;16.174;2023-02-01T06:53:46;1.70;;;1.15;;
38859;SDS011;24609;48.316;16.174;2023-02-01T06:56:12;1.30;;;1.17;;
38859;SDS011;24609;48.316;16.174;2023-02-01T06:58:37;2.30;;;1.50;;
38859;SDS011;24609;48.316;16.174;2023-02-01T07:01:04;3.70;;;2.05;;
38859;SDS011;24609;48.316;16.174;2023-02-01T07:03:31;2.30;;;1.35;;
38859;SDS011;24609;48.316;16.174;2023-02-01T07:05:57;1.98;;;1.58;;
38859;SDS011;24609;48.316;16.174;2023-02-01T07:08:29;3.13;;;1.83;;
38859;SDS011;24609;48.316;16.174;2023-02-01T07:10:56;4.32;;;1.63;;
38859;SDS011;24609;48.316;16.174;2023-02-01T07:13:22;2.72;;;1.60;;
38859;SDS011;24609;48.316;16.174;2023-02-01T07:15:47;2.33;;;1.85;;
38859;SDS011;24609;48.316;16.174;2023-02-01T07:18:14;2.97;;;1.30;;
38859;SDS011;24609;48.316;16.174;2023-02-01T07:20:40;8.45;;;1.70;;
38859;SDS011;24609;48.316;16.174;2023-02-01T07:23:06;2.75;;;1.88;;
38859;SDS011;24609;48.316;16.174;2023-02-01T07:25:35;3.10;;;1.88;;
38859;SDS011;24609;48.316;16.174;2023-02-01T07:28:00;3.33;;;2.03;;
38859;SDS011;24609;48.316;16.174;2023-02-01T07:30:26;3.58;;;1.52;;
38859;SDS011;24609;48.316;16.174;2023-02-01T07:32:52;3.40;;;1.75;;
38859;SDS011;24609;48.316;16.174;2023-02-01T07:35:20;1.63;;;1.25;;
38859;SDS011;24609;48.316;16.174;2023-02-01T07:37:46;3.15;;;1.58;;
38859;SDS011;24609;48.316;16.174;2023-02-01T07:40:11;2.65;;;1.65;;
38859;SDS011;24609;48.316;16.174;2023-02-01T07:42:37;2.55;;;1.73;;
38859;SDS011;24609;48.316;16.174;2023-02-01T07:45:03;3.05;;;1.75;;
38859;SDS011;24609;48.316;16.174;2023-02-01T07:47:29;2.63;;;2.20;;
38859;SDS011;24609;48.316;16.174;2023-02-01T07:49:55;2.83;;;1.70;;
38859;SDS011;24609;48.316;16.174;2023-02-01T07:52:20;2.38;;;1.27;;
38859;SDS011;24609;48.316;16.174;2023-02-01T07:54:46;2.30;;;1.63;;
38859;SDS011;24609;48.316;16.174;2023-02-01T07:57:12;2.25;;;1.27;;
38859;SDS011;24609;48.316;16.174;2023-02-01T07:59:38;3.63;;;1.73;;
38859;SDS011;24609;48.316;16.174;2023-02-01T08:02:26;1.80;;;1.70;;
38859;SDS011;24609;48.316;16.174;2023-02-01T08:04:52;6.65;;;1.90;;
38859;SDS011;24609;48.316;16.174;2023-02-01T08:07:18;3.35;;;1.92;;
38859;SDS011;24609;48.316;16.174;2023-02-01T08:09:43;3.50;;;1.70;;
38859;SDS011;24609;48.316;16.174;2023-02-01T08:12:09;3.58;;;2.25;;
38859;SDS011;24609;48.316;16.174;2023-02-01T08:14:35;2.95;;;1.92;;
38859;SDS011;24609;48.316;16.174;2023-02-01T08:17:00;5.55;;;2.65;;
38859;SDS011;24609;48.316;16.174;2023-02-01T08:19:26;5.55;;;2.00;;
38859;SDS011;24609;48.316;16.174;2023-02-01T08:21:52;3.42;;;2.08;;
38859;SDS011;24609;48.316;16.174;2023-02-01T08:24:17;2.90;;;1.90;;
38859;SDS011;24609;48.316;16.174;2023-02-01T08:26:43;4.72;;;2.70;;
38859;SDS011;24609;48.316;16.174;2023-02-01T08:29:09;2.60;;;1.58;;
38859;SDS011;24609;48.316;16.174;2023-02-01T08:31:37;4.35;;;2.35;;
38859;SDS011;24609;48.316;16.174;2023-02-01T08:34:05;4.25;;;2.08;;
38859;SDS011;24609;48.316;16.174;2023-02-01T08:36:33;4.07;;;2.47;;
38859;SDS011;24609;48.316;16.174;2023-02-01T08:38:59;3.25;;;1.85;;
38859;SDS011;24609;48.316;16.174;2023-02-01T08:41:28;5.93;;;2.22;;
38859;SDS011;24609;48.316;16.174;2023-02-01T08:43:55;3.60;;;2.15;;
38859;SDS011;24609;48.316;16.174;2023-02-01T08:46:21;4.00;;;2.20;;
38859;SDS011;24609;48.316;16.174;2023-02-01T08:48:48;2.38;;;1.67;;
38859;SDS011;24609;48.316;16.174;2023-02-01T08:51:15;3.30;;;1.98;;
38859;SDS011;24609;48.316;16.174;2023-02-01T08:53:41;6.55;;;2.15;;
38859;SDS011;24609;48.316;16.174;2023-02-01T08:56:08;3.47;;;2.15;;
38859;SDS011;24609;48.316;16.174;2023-02-01T08:58:36;3.10;;;2.03;;
38859;SDS011;24609;48.316;16.174;2023-02-01T09:01:02;3.83;;;1.95;;
38859;SDS011;24609;48.316;16.174;2023-02-01T09:03:33;3.13;;;2.13;;
38859;SDS011;24609;48.316;16.174;2023-02-01T09:06:02;3.22;;;2.28;;
38859;SDS011;24609;48.316;16.174;2023-02-01T09:08:32;3.58;;;1.92;;
38859;SDS011;24609;48.316;16.174;2023-02-01T09:10:59;2.80;;;2.25;;
38859;SDS011;24609;48.316;16.174;2023-02-01T09:13:25;4.25;;;1.88;;
38859;SDS011;24609;48.316;16.174;2023-02-01T09:15:51;2.25;;;1.90;;
38859;SDS011;24609;48.316;16.174;2023-02-01T09:18:17;4.00;;;2.20;;
38859;SDS011;24609;48.316;16.174;2023-02-01T09:20:43;2.65;;;1.92;;
38859;SDS011;24609;48.316;16.174;2023-02-01T09:23:08;6.68;;;2.63;;
38859;SDS011;24609;48.316;16.174;2023-02-01T09:25:36;3.10;;;2.22;;
38859;SDS011;24609;48.316;16.174;2023-02-01T09:28:03;7.53;;;3.40;;
38859;SDS011;24609;48.316;16.174;2023-02-01T09:30:30;3.40;;;2.15;;
38859;SDS011;24609;48.316;16.174;2023-02-01T09:32:57;3.97;;;2.22;;
38859;SDS011;24609;48.316;16.174;2023-02-01T09:35:23;5.03;;;2.92;;
38859;SDS011;24609;48.316;16.174;2023-02-01T09:37:48;2.75;;;1.83;;
38859;SDS011;24609;48.316;16.174;2023-02-01T09:40:15;3.70;;;2.00;;
38859;SDS011;24609;48.316;16.174;2023-02-01T09:48:20;3.55;;;1.90;;
38859;SDS011;24609;48.316;16.174;2023-02-01T09:50:55;3.72;;;1.73;;
38859;SDS011;24609;48.316;16.174;2023-02-01T09:53:28;2.28;;;1.70;;
38859;SDS011;24609;48.316;16.174;2023-02-01T09:56:04;3.42;;;2.15;;
38859;SDS011;24609;48.316;16.174;2023-02-01T10:00:59;2.95;;;2.10;;
38859;SDS011;24609;48.316;16.174;2023-02-01T10:03:27;4.00;;;1.50;;
38859;SDS011;24609;48.316;16.174;2023-02-01T10:26:04;2.40;;;1.40;;
38859;SDS011;24609;48.316;16.174;2023-02-01T10:28:39;2.13;;;1.55;;
38859;SDS011;24609;48.316;16.174;2023-02-01T10:31:07;1.47;;;1.03;;
38859;SDS011;24609;48.316;16.174;2023-02-01T10:33:39;2.78;;;1.60;;
38859;SDS011;24609;48.316;16.174;2023-02-01T10:36:16;2.78;;;1.42;;
38859;SDS011;24609;48.316;16.174;2023-02-01T10:38:48;1.40;;;1.20;;
38859;SDS011;24609;48.316;16.174;2023-02-01T10:41:18;2.30;;;1.42;;
38859;SDS011;24609;48.316;16.174;2023-02-01T10:43:48;2.97;;;1.70;;
38859;SDS011;24609;48.316;16.174;2023-02-01T10:46:18;4.68;;;1.75;;
38859;SDS011;24609;48.316;16.174;2023-02-01T10:48:43;6.85;;;1.58;;
38859;SDS011;24609;48.316;16.174;2023-02-01T10:51:15;4.28;;;1.48;;
38859;SDS011;24609;48.316;16.174;2023-02-01T10:56:29;1.88;;;1.45;;
38859;SDS011;24609;48.316;16.174;2023-02-01T10:59:03;2.30;;;1.40;;
38859;SDS011;24609;48.316;16.174;2023-02-01T11:01:33;3.45;;;1.63;;
38859;SDS011;24609;48.316;16.174;2023-02-01T11:04:03;3.63;;;1.50;;
38859;SDS011;24609;48.316;16.174;2023-02-01T11:06:44;2.85;;;2.03;;
38859;SDS011;24609;48.316;16.174;2023-02-01T11:14:19;2.85;;;1.60;;
38859;SDS011;24609;48.316;16.174;2023-02-01T11:19:22;3.03;;;1.75;;
38859;SDS011;24609;48.316;16.174;2023-02-01T11:21:51;1.75;;;1.35;;
38859;SDS011;24609;48.316;16.174;2023-02-01T11:24:34;5.15;;;2.13;;
38859;SDS011;24609;48.316;16.174;2023-02-01T11:27:02;3.70;;;1.58;;
38859;SDS011;24609;48.316;16.174;2023-02-01T11:29:32;1.65;;;1.48;;
38859;SDS011;24609;48.316;16.174;2023-02-01T11:32:02;3.80;;;1.98;;
38859;SDS011;24609;48.316;16.174;2023-02-01T11:35:06;5.75;;;1.60;;
38859;SDS011;24609;48.316;16.174;2023-02-01T11:37:31;1.58;;;1.30;;
38859;SDS011;24609;48.316;16.174;2023-02-01T11:39:58;2.95;;;2.10;;
38859;SDS011;24609;48.316;16.174;2023-02-01T11:42:26;3.75;;;2.30;;
38859;SDS011;24609;48.316;16.174;2023-02-01T11:48:02;2.88;;;1.63;;
38859;SDS011;24609;48.316;16.174;2023-02-01T11:50:38;2.05;;;1.38;;
38859;SDS011;24609;48.316;16.174;2023-02-01T11:53:32;1.52;;;1.20;;
38859;SDS011;24609;48.316;16.174;2023-02-01T11:58:50;3.08;;;1.77;;
38859;SDS011;24609;48.316;16.174;2023-02-01T12:13:40;2.67;;;1.80;;
38859;SDS011;24609;48.316;16.174;2023-02-01T12:19:23;1.52;;;1.38;;
38859;SDS011;24609;48.316;16.174;2023-02-01T12:22:44;3.15;;;1.33;;
38859;SDS011;24609;48.316;16.174;2023-02-01T12:41:02;1.00;;;0.90;;
38859;SDS011;24609;48.316;16.174;2023-02-01T12:46:58;0.90;;;0.88;;
38859;SDS011;24609;48.316;16.174;2023-02-01T12:49:50;2.72;;;1.33;;
38859;SDS011;24609;48.316;16.174;2023-02-01T12:58:08;0.80;;;0.57;;
38859;SDS011;24609;48.316;16.174;2023-02-01T13:00:46;1.48;;;0.77;;
38859;SDS011;24609;48.316;16.174;2023-02-01T13:08:51;1.35;;;0.93;;
38859;SDS011;24609;48.316;16.174;2023-02-01T13:11:27;1.48;;;0.70;;
38859;SDS011;24609;48.316;16.174;2023-02-01T13:16:43;1.50;;;0.82;;
38859;SDS011;24609;48.316;16.174;2023-02-01T13:19:13;1.17;;;0.80;;
38859;SDS011;24609;48.316;16.174;2023-02-01T13:21:48;1.25;;;0.80;;
38859;SDS011;24609;48.316;16.174;2023-02-01T13:24:36;1.60;;;1.02;;
38859;SDS011;24609;48.316;16.174;2023-02-01T13:27:13;0.63;;;0.47;;
38859;SDS011;24609;48.316;16.174;2023-02-01T13:29:53;0.32;;;0.30;;
38859;SDS011;24609;48.316;16.174;2023-02-01T13:44:01;0.57;;;0.40;;
38859;SDS011;24609;48.316;16.174;2023-02-01T13:46:37;0.40;;;0.40;;
38859;SDS011;24609;48.316;16.174;2023-02-01T13:49:13;0.30;;;0.30;;
38859;SDS011;24609;48.316;16.174;2023-02-01T13:51:54;0.50;;;0.40;;
38859;SDS011;24609;48.316;16.174;2023-02-01T13:54:25;0.98;;;0.32;;
38859;SDS011;24609;48.316;16.174;2023-02-01T13:56:57;0.50;;;0.45;;
38859;SDS011;24609;48.316;16.174;2023-02-01T13:59:48;0.70;;;0.47;;
38859;SDS011;24609;48.316;16.174;2023-02-01T14:05:08;1.35;;;0.63;;
38859;SDS011;24609;48.316;16.174;2023-02-01T14:10:46;1.15;;;0.75;;
38859;SDS011;24609;48.316;16.174;2023-02-01T14:16:16;0.98;;;0.88;;
38859;SDS011;24609;48.316;16.174;2023-02-01T14:29:36;1.00;;;0.70;;
38859;SDS011;24609;48.316;16.174;2023-02-01T14:32:22;0.35;;;0.25;;
38859;SDS011;24609;48.316;16.174;2023-02-01T14:34:53;0.40;;;0.40;;
38859;SDS011;24609;48.316;16.174;2023-02-01T14:37:29;0.30;;;0.30;;
38859;SDS011;24609;48.316;16.174;2023-02-01T14:58:40;0.55;;;0.50;;
38859;SDS011;24609;48.316;16.174;2023-02-01T15:01:16;0.63;;;0.40;;
38859;SDS011;24609;48.316;16.174;2023-02-01T15:09:20;2.05;;;0.82;;
38859;SDS011;24609;48.316;16.174;2023-02-01T15:17:24;0.73;;;0.70;;
38859;SDS011;24609;48.316;16.174;2023-02-01T15:19:56;1.33;;;0.90;;
38859;SDS011;24609;48.316;16.174;2023-02-01T15:22:26;1.58;;;1.00;;
38859;SDS011;24609;48.316;16.174;2023-02-01T15:24:53;3.20;;;0.98;;
38859;SDS011;24609;48.316;16.174;2023-02-01T15:27:20;1.60;;;0.90;;
38859;SDS011;24609;48.316;16.174;2023-02-01T15:29:49;1.70;;;1.02;;
38859;SDS011;24609;48.316;16.174;2023-02-01T15:32:31;2.75;;;1.20;;
38859;SDS011;24609;48.316;16.174;2023-02-01T15:35:05;1.80;;;1.08;;
38859;SDS011;24609;48.316;16.174;2023-02-01T15:37:51;1.98;;;1.02;;
38859;SDS011;24609;48.316;16.174;2023-02-01T15:40:20;0.55;;;0.43;;
38859;SDS011;24609;48.316;16.174;2023-02-01T15:42:50;1.05;;;0.80;;
38859;SDS011;24609;48.316;16.174;2023-02-01T15:45:20;1.77;;;0.98;;
38859;SDS011;24609;48.316;16.174;2023-02-01T15:47:50;2.67;;;1.20;;
38859;SDS011;24609;48.316;16.174;2023-02-01T15:50:18;1.55;;;0.70;;
38859;SDS011;24609;48.316;16.174;2023-02-01T15:52:46;1.80;;;1.10;;
38859;SDS011;24609;48.316;16.174;2023-02-01T15:57:48;1.52;;;0.90;;
38859;SDS011;24609;48.316;16.174;2023-02-01T16:05:35;1.23;;;0.70;;
38859;SDS011;24609;48.316;16.174;2023-02-01T16:10:45;1.30;;;0.88;;
38859;SDS011;24609;48.316;16.174;2023-02-01T16:13:15;3.20;;;0.98;;
38859;SDS011;24609;48.316;16.174;2023-02-01T16:15:42;0.63;;;0.63;;
38859;SDS011;24609;48.316;16.174;2023-02-01T16:18:08;2.72;;;0.90;;
38859;SDS011;24609;48.316;16.174;2023-02-01T16:20:36;3.80;;;1.35;;
38859;SDS011;24609;48.316;16.174;2023-02-01T16:23:04;1.63;;;1.17;;
38859;SDS011;24609;48.316;16.174;2023-02-01T16:25:30;2.00;;;1.02;;
38859;SDS011;24609;48.316;16.174;2023-02-01T16:27:56;1.25;;;0.90;;
38859;SDS011;24609;48.316;16.174;2023-02-01T16:30:22;1.30;;;0.90;;
38859;SDS011;24609;48.316;16.174;2023-02-01T16:32:51;1.35;;;0.75;;
38859;SDS011;24609;48.316;16.174;2023-02-01T16:35:22;1.25;;;0.95;;
38859;SDS011;24609;48.316;16.174;2023-02-01T16:37:51;2.55;;;1.63;;
38859;SDS011;24609;48.316;16.174;2023-02-01T16:40:18;2.67;;;0.95;;
38859;SDS011;24609;48.316;16.174;2023-02-01T16:42:49;3.78;;;1.00;;
38859;SDS011;24609;48.316;16.174;2023-02-01T16:45:20;3.60;;;1.77;;
38859;SDS011;24609;48.316;16.174;2023-02-01T16:47:49;2.17;;;1.08;;
38859;SDS011;24609;48.316;16.174;2023-02-01T16:50:20;2.78;;;1.58;;
38859;SDS011;24609;48.316;16.174;2023-02-01T16:52:49;2.10;;;1.23;;
38859;SDS011;24609;48.316;16.174;2023-02-01T16:55:17;1.77;;;1.23;;
38859;SDS011;24609;48.316;16.174;2023-02-01T16:57:47;5.28;;;1.73;;
38859;SDS011;24609;48.316;16.174;2023-02-01T17:00:13;5.53;;;1.65;;
38859;SDS011;24609;48.316;16.174;2023-02-01T17:02:40;2.25;;;1.30;;
38859;SDS011;24609;48.316;16.174;2023-02-01T17:05:07;2.08;;;1.70;;
38859;SDS011;24609;48.316;16.174;2023-02-01T17:07:33;6.50;;;1.60;;
38859;SDS011;24609;48.316;16.174;2023-02-01T17:09:59;3.45;;;1.50;;
38859;SDS011;24609;48.316;16.174;2023-02-01T17:12:27;2.88;;;1.35;;
38859;SDS011;24609;48.316;16.174;2023-02-01T17:14:59;1.65;;;1.40;;
38859;SDS011;24609;48.316;16.174;2023-02-01T17:17:27;1.95;;;1.30;;
38859;SDS011;24609;48.316;16.174;2023-02-01T17:19:58;5.47;;;1.60;;
38859;SDS011;24609;48.316;16.174;2023-02-01T17:22:24;7.43;;;1.90;;
38859;SDS011;24609;48.316;16.174;2023-02-01T17:24:52;2.38;;;1.67;;
38859;SDS011;24609;48.316;16.174;2023-02-01T17:27:20;2.30;;;1.60;;
38859;SDS011;24609;48.316;16.174;2023-02-01T17:29:48;5.00;;;2.47;;
38859;SDS011;24609;48.316;16.174;2023-02-01T17:32:18;1.88;;;1.60;;
38859;SDS011;24609;48.316;16.174;2023-02-01T17:34:47;4.70;;;1.75;;
38859;SDS011;24609;48.316;16.174;2023-02-01T17:37:17;3.45;;;1.80;;
38859;SDS011;24609;48.316;16.174;2023-02-01T17:39:51;2.70;;;1.73;;
38859;SDS011;24609;48.316;16.174;2023-02-01T17:42:22;8.82;;;1.90;;
38859;SDS011;24609;48.316;16.174;2023-02-01T17:44:49;2.42;;;1.75;;
38859;SDS011;24609;48.316;16.174;2023-02-01T17:47:17;2.95;;;1.90;;
38859;SDS011;24609;48.316;16.174;2023-02-01T17:49:43;2.78;;;1.48;;
38859;SDS011;24609;48.316;16.174;2023-02-01T17:52:15;3.92;;;1.98;;
38859;SDS011;24609;48.316;16.174;2023-02-01T17:54:42;2.70;;;1.65;;
38859;SDS011;24609;48.316;16.174;2023-02-01T17:57:12;2.70;;;1.63;;
38859;SDS011;24609;48.316;16.174;2023-02-01T17:59:38;2.05;;;1.58;;
38859;SDS011;24609;48.316;16.174;2023-02-01T18:02:08;2.22;;;1.75;;
38859;SDS011;24609;48.316;16.174;2023-02-01T18:07:08;4.88;;;2.17;;
38859;SDS011;24609;48.316;16.174;2023-02-01T18:09:34;3.40;;;1.95;;
38859;SDS011;24609;48.316;16.174;2023-02-01T18:12:09;2.25;;;1.60;;
38859;SDS011;24609;48.316;16.174;2023-02-01T18:14:42;3.60;;;1.73;;